sensor_id;sensor_type;location;lat;lon;timestamp;pressure;altitude;pressure_sealevel;temperature;humidity
6389;BME280;3227;42.654;23.360;2023-01-30T00:00:50;94669.81;;;2.18;77.38
6389;BME280;3227;42.654;23.360;2023-01-30T00:03:19;94672.09;;;2.11;76.54
6389;BME280;3227;42.654;23.360;2023-01-30T00:05:46;94663.03;;;2.17;76.08
6389;BME280;3227;42.654;23.360;2023-01-30T00:08:13;94657.44;;;2.26;76.99
6389;BME280;3227;42.654;23.360;2023-01-30T00:10:40;94658.59;;;2.36;76.77
6389;BME280;3227;42.654;23.360;2023-01-30T00:13:07;94654.34;;;2.35;75.84
6389;BME280;3227;42.654;23.360;2023-01-30T00:15:34;94653.97;;;2.49;75.03
6389;BME280;3227;42.654;23.360;2023-01-30T00:18:01;94656.31;;;2.43;74.91
6389;BME280;3227;42.654;23.360;2023-01-30T00:20:29;94652.13;;;2.44;75.52
6389;BME280;3227;42.654;23.360;2023-01-30T00:22:56;94656.19;;;2.40;75.99
6389;BME280;3227;42.654;23.360;2023-01-30T00:25:23;94663.59;;;2.34;74.80
6389;BME280;3227;42.654;23.360;2023-01-30T00:27:50;94664.69;;;2.42;75.56
6389;BME280;3227;42.654;23.360;2023-01-30T00:30:17;94661.66;;;2.52;75.94
6389;BME280;3227;42.654;23.360;2023-01-30T00:32:44;94659.94;;;2.26;74.11
6389;BME280;3227;42.654;23.360;2023-01-30T00:35:11;94661.28;;;1.91;76.55
6389;BME280;3227;42.654;23.360;2023-01-30T00:37:39;94657.59;;;1.81;77.83
6389;BME280;3227;42.654;23.360;2023-01-30T00:40:07;94648.13;;;1.52;77.88
6389;BME280;3227;42.654;23.360;2023-01-30T00:42:34;94639.00;;;1.32;79.07
6389;BME280;3227;42.654;23.360;2023-01-30T00:45:18;94647.78;;;1.19;80.10
6389;BME280;3227;42.654;23.360;2023-01-30T00:48:02;94637.41;;;1.11;81.16
6389;BME280;3227;42.654;23.360;2023-01-30T00:50:29;94635.94;;;1.40;81.91
6389;BME280;3227;42.654;23.360;2023-01-30T00:53:09;94609.72;;;1.37;81.79
6389;BME280;3227;42.654;23.360;2023-01-30T00:55:36;94576.13;;;1.15;79.62
6389;BME280;3227;42.654;23.360;2023-01-30T00:58:03;94633.72;;;1.26;81.30
6389;BME280;3227;42.654;23.360;2023-01-30T01:00:30;94637.34;;;1.10;81.83
6389;BME280;3227;42.654;23.360;2023-01-30T01:02:57;94641.09;;;0.97;82.05
6389;BME280;3227;42.654;23.360;2023-01-30T01:05:24;94638.44;;;0.94;82.05
6389;BME280;3227;42.654;23.360;2023-01-30T01:07:50;94619.56;;;0.85;82.69
6389;BME280;3227;42.654;23.360;2023-01-30T01:10:19;94638.50;;;0.96;81.84
6389;BME280;3227;42.654;23.360;2023-01-30T01:12:48;94630.25;;;0.77;82.86
6389;BME280;3227;42.654;23.360;2023-01-30T01:15:17;94588.44;;;0.40;83.30
6389;BME280;3227;42.654;23.360;2023-01-30T01:17:44;94640.19;;;0.74;83.94
6389;BME280;3227;42.654;23.360;2023-01-30T01:20:11;94589.66;;;0.49;84.37
6389;BME280;3227;42.654;23.360;2023-01-30T01:22:40;94590.13;;;0.61;83.55
6389;BME280;3227;42.654;23.360;2023-01-30T01:25:08;94621.31;;;0.86;84.16
6389;BME280;3227;42.654;23.360;2023-01-30T01:27:39;94620.13;;;0.98;83.90
6389;BME280;3227;42.654;23.360;2023-01-30T01:30:07;94602.47;;;1.00;82.26
6389;BME280;3227;42.654;23.360;2023-01-30T01:32:34;94618.53;;;1.02;82.06
6389;BME280;3227;42.654;23.360;2023-01-30T01:35:01;94616.72;;;0.98;81.95
6389;BME280;3227;42.654;23.360;2023-01-30T01:37:28;94624.66;;;1.08;82.05
6389;BME280;3227;42.654;23.360;2023-01-30T01:39:55;94591.59;;;1.01;82.24
6389;BME280;3227;42.654;23.360;2023-01-30T01:42:40;94613.53;;;1.26;81.68
6389;BME280;3227;42.654;23.360;2023-01-30T01:45:16;94623.28;;;1.17;81.14
6389;BME280;3227;42.654;23.360;2023-01-30T01:47:47;94624.16;;;1.17;81.90
6389;BME280;3227;42.654;23.360;2023-01-30T01:50:17;94619.03;;;1.38;81.29
6389;BME280;3227;42.654;23.360;2023-01-30T01:52:45;94618.03;;;1.58;81.40
6389;BME280;3227;42.654;23.360;2023-01-30T01:55:14;94573.41;;;1.33;80.78
6389;BME280;3227;42.654;23.360;2023-01-30T01:57:45;94620.63;;;1.60;81.51
6389;BME280;3227;42.654;23.360;2023-01-30T02:00:15;94617.72;;;1.49;79.99
6389;BME280;3227;42.654;23.360;2023-01-30T02:02:46;94618.38;;;1.43;80.80
6389;BME280;3227;42.654;23.360;2023-01-30T02:05:16;94621.69;;;1.42;80.10
6389;BME280;3227;42.654;23.360;2023-01-30T02:07:46;94613.16;;;1.15;80.29
6389;BME280;3227;42.654;23.360;2023-01-30T02:10:18;94621.41;;;1.11;81.38
6389;BME280;3227;42.654;23.360;2023-01-30T02:12:50;94626.50;;;1.12;80.74
6389;BME280;3227;42.654;23.360;2023-01-30T02:15:18;94617.81;;;1.04;81.27
6389;BME280;3227;42.654;23.360;2023-01-30T02:17:45;94623.09;;;1.34;81.48
6389;BME280;3227;42.654;23.360;2023-01-30T02:20:22;94618.22;;;1.39;79.66
6389;BME280;3227;42.654;23.360;2023-01-30T02:26:46;94629.44;;;1.23;80.17
6389;BME280;3227;42.654;23.360;2023-01-30T02:29:38;94608.16;;;1.40;80.81
6389;BME280;3227;42.654;23.360;2023-01-30T02:32:19;94614.25;;;1.45;80.04
6389;BME280;3227;42.654;23.360;2023-01-30T02:34:52;94610.53;;;1.60;79.79
6389;BME280;3227;42.654;23.360;2023-01-30T02:37:29;94611.78;;;1.47;78.19
6389;BME280;3227;42.654;23.360;2023-01-30T02:40:14;94607.31;;;1.64;78.94
6389;BME280;3227;42.654;23.360;2023-01-30T02:42:47;94573.63;;;1.15;77.69
6389;BME280;3227;42.654;23.360;2023-01-30T02:45:22;94610.00;;;1.44;78.63
6389;BME280;3227;42.654;23.360;2023-01-30T02:47:59;94596.97;;;1.58;78.28
6389;BME280;3227;42.654;23.360;2023-01-30T02:50:31;94600.31;;;1.80;77.52
6389;BME280;3227;42.654;23.360;2023-01-30T02:52:58;94598.72;;;1.84;77.80
6389;BME280;3227;42.654;23.360;2023-01-30T02:55:27;94590.72;;;1.96;77.71
6389;BME280;3227;42.654;23.360;2023-01-30T02:57:54;94603.03;;;2.12;76.92
6389;BME280;3227;42.654;23.360;2023-01-30T03:00:24;94584.56;;;1.87;76.35
6389;BME280;3227;42.654;23.360;2023-01-30T03:03:08;94603.91;;;2.12;76.16
6389;BME280;3227;42.654;23.360;2023-01-30T03:06:20;94609.75;;;2.11;76.02
6389;BME280;3227;42.654;23.360;2023-01-30T03:09:00;94609.81;;;2.13;75.94
6389;BME280;3227;42.654;23.360;2023-01-30T03:11:36;94610.94;;;2.22;74.77
6389;BME280;3227;42.654;23.360;2023-01-30T03:14:08;94551.94;;;1.95;75.31
6389;BME280;3227;42.654;23.360;2023-01-30T03:16:38;94596.44;;;2.42;75.32
6389;BME280;3227;42.654;23.360;2023-01-30T03:19:09;94600.00;;;2.49;75.00
6389;BME280;3227;42.654;23.360;2023-01-30T03:21:39;94583.94;;;2.47;73.99
6389;BME280;3227;42.654;23.360;2023-01-30T03:24:07;94571.19;;;2.44;73.92
6389;BME280;3227;42.654;23.360;2023-01-30T03:26:36;94578.19;;;2.52;73.22
6389;BME280;3227;42.654;23.360;2023-01-30T03:29:05;94576.53;;;2.53;73.06
6389;BME280;3227;42.654;23.360;2023-01-30T03:31:32;94573.28;;;2.57;72.72
6389;BME280;3227;42.654;23.360;2023-01-30T03:33:59;94574.72;;;2.49;72.44
6389;BME280;3227;42.654;23.360;2023-01-30T03:36:27;94546.75;;;2.44;73.53
6389;BME280;3227;42.654;23.360;2023-01-30T03:38:54;94534.06;;;2.43;72.40
6389;BME280;3227;42.654;23.360;2023-01-30T03:41:21;94569.75;;;2.52;71.93
6389;BME280;3227;42.654;23.360;2023-01-30T03:43:48;94567.94;;;2.48;72.48
6389;BME280;3227;42.654;23.360;2023-01-30T03:46:14;94556.19;;;2.50;73.28
6389;BME280;3227;42.654;23.360;2023-01-30T03:48:41;94569.66;;;2.49;71.99
6389;BME280;3227;42.654;23.360;2023-01-30T03:51:08;94575.97;;;2.35;71.85
6389;BME280;3227;42.654;23.360;2023-01-30T03:53:36;94574.94;;;2.03;71.82
6389;BME280;3227;42.654;23.360;2023-01-30T03:56:03;94565.69;;;1.78;73.43
6389;BME280;3227;42.654;23.360;2023-01-30T03:58:30;94565.69;;;1.78;74.93
6389;BME280;3227;42.654;23.360;2023-01-30T04:00:57;94560.75;;;1.57;74.71
6389;BME280;3227;42.654;23.360;2023-01-30T04:03:23;94556.25;;;1.72;76.01
6389;BME280;3227;42.654;23.360;2023-01-30T04:05:50;94522.97;;;1.35;76.27
6389;BME280;3227;42.654;23.360;2023-01-30T04:08:17;94553.97;;;1.55;76.10
6389;BME280;3227;42.654;23.360;2023-01-30T04:10:45;94520.72;;;1.42;76.41
6389;BME280;3227;42.654;23.360;2023-01-30T04:13:12;94539.50;;;1.50;76.44
6389;BME280;3227;42.654;23.360;2023-01-30T04:15:39;94552.94;;;1.49;76.18
6389;BME280;3227;42.654;23.360;2023-01-30T04:18:05;94564.22;;;1.35;76.94
6389;BME280;3227;42.654;23.360;2023-01-30T04:20:32;94509.97;;;0.99;77.57
6389;BME280;3227;42.654;23.360;2023-01-30T04:22:59;94561.56;;;1.31;78.20
6389;BME280;3227;42.654;23.360;2023-01-30T04:25:26;94556.06;;;1.42;78.15
6389;BME280;3227;42.654;23.360;2023-01-30T04:27:54;94553.16;;;1.56;78.30
6389;BME280;3227;42.654;23.360;2023-01-30T04:30:21;94384.38;;;0.66;77.97
6389;BME280;3227;42.654;23.360;2023-01-30T04:32:48;94561.06;;;1.65;76.23
6389;BME280;3227;42.654;23.360;2023-01-30T04:35:15;94545.91;;;1.41;77.47
6389;BME280;3227;42.654;23.360;2023-01-30T04:37:42;94538.66;;;1.26;78.26
6389;BME280;3227;42.654;23.360;2023-01-30T04:40:11;94542.63;;;1.43;78.23
6389;BME280;3227;42.654;23.360;2023-01-30T04:42:37;94559.59;;;1.71;77.18
6389;BME280;3227;42.654;23.360;2023-01-30T04:45:07;94553.94;;;1.78;77.07
6389;BME280;3227;42.654;23.360;2023-01-30T04:47:34;94546.41;;;1.80;77.15
6389;BME280;3227;42.654;23.360;2023-01-30T04:50:00;94547.50;;;1.88;77.02
6389;BME280;3227;42.654;23.360;2023-01-30T04:52:27;94500.16;;;1.57;76.35
6389;BME280;3227;42.654;23.360;2023-01-30T04:54:54;94537.72;;;1.97;76.55
6389;BME280;3227;42.654;23.360;2023-01-30T04:57:21;94542.03;;;2.01;76.93
6389;BME280;3227;42.654;23.360;2023-01-30T04:59:48;94541.78;;;1.94;76.95
6389;BME280;3227;42.654;23.360;2023-01-30T05:02:16;94535.38;;;2.03;77.11
6389;BME280;3227;42.654;23.360;2023-01-30T05:04:43;94538.19;;;2.12;75.90
6389;BME280;3227;42.654;23.360;2023-01-30T05:07:09;94544.84;;;2.10;75.81
6389;BME280;3227;42.654;23.360;2023-01-30T05:09:36;94517.50;;;1.97;76.32
6389;BME280;3227;42.654;23.360;2023-01-30T05:12:03;94539.81;;;2.10;75.50
6389;BME280;3227;42.654;23.360;2023-01-30T05:14:30;94521.53;;;2.19;76.89
6389;BME280;3227;42.654;23.360;2023-01-30T05:16:57;94541.13;;;2.26;75.87
6389;BME280;3227;42.654;23.360;2023-01-30T05:19:25;94538.25;;;2.15;75.75
6389;BME280;3227;42.654;23.360;2023-01-30T05:21:52;94538.75;;;2.04;76.22
6389;BME280;3227;42.654;23.360;2023-01-30T05:24:19;94547.69;;;1.94;76.85
6389;BME280;3227;42.654;23.360;2023-01-30T05:26:51;94554.47;;;1.95;76.55
6389;BME280;3227;42.654;23.360;2023-01-30T05:29:18;94546.44;;;1.81;76.86
6389;BME280;3227;42.654;23.360;2023-01-30T05:31:45;94552.25;;;1.79;78.34
6389;BME280;3227;42.654;23.360;2023-01-30T05:34:12;94542.22;;;1.80;78.68
6389;BME280;3227;42.654;23.360;2023-01-30T05:36:40;94488.31;;;1.29;77.85
6389;BME280;3227;42.654;23.360;2023-01-30T05:39:07;94490.91;;;1.32;78.94
6389;BME280;3227;42.654;23.360;2023-01-30T05:41:34;94541.75;;;1.67;79.35
6389;BME280;3227;42.654;23.360;2023-01-30T05:44:00;94544.75;;;1.57;79.70
6389;BME280;3227;42.654;23.360;2023-01-30T05:46:27;94546.28;;;1.51;80.27
6389;BME280;3227;42.654;23.360;2023-01-30T05:48:54;94551.59;;;1.35;80.59
6389;BME280;3227;42.654;23.360;2023-01-30T05:51:22;94551.13;;;1.45;80.51
6389;BME280;3227;42.654;23.360;2023-01-30T05:53:51;94548.88;;;1.29;80.32
6389;BME280;3227;42.654;23.360;2023-01-30T05:56:18;94547.28;;;1.31;81.59
6389;BME280;3227;42.654;23.360;2023-01-30T05:58:49;94558.44;;;1.38;81.29
6389;BME280;3227;42.654;23.360;2023-01-30T06:01:16;94560.00;;;1.34;81.77
6389;BME280;3227;42.654;23.360;2023-01-30T06:03:43;94555.66;;;1.30;81.88
6389;BME280;3227;42.654;23.360;2023-01-30T06:06:11;94532.97;;;1.08;81.46
6389;BME280;3227;42.654;23.360;2023-01-30T06:08:38;94494.53;;;0.91;81.89
6389;BME280;3227;42.654;23.360;2023-01-30T06:11:08;94554.78;;;1.53;82.05
6389;BME280;3227;42.654;23.360;2023-01-30T06:13:35;94562.00;;;1.68;80.24
6389;BME280;3227;42.654;23.360;2023-01-30T06:16:03;94506.03;;;1.31;80.99
6389;BME280;3227;42.654;23.360;2023-01-30T06:18:30;94545.91;;;1.65;79.69
6389;BME280;3227;42.654;23.360;2023-01-30T06:20:57;94548.50;;;1.68;80.23
6389;BME280;3227;42.654;23.360;2023-01-30T06:23:23;94547.25;;;1.55;79.72
6389;BME280;3227;42.654;23.360;2023-01-30T06:25:51;94541.09;;;1.47;81.22
6389;BME280;3227;42.654;23.360;2023-01-30T06:28:20;94537.78;;;1.49;81.88
6389;BME280;3227;42.654;23.360;2023-01-30T06:30:48;94540.97;;;1.44;81.38
6389;BME280;3227;42.654;23.360;2023-01-30T06:33:15;94549.16;;;1.37;81.64
6389;BME280;3227;42.654;23.360;2023-01-30T06:35:42;94471.22;;;0.97;81.58
6389;BME280;3227;42.654;23.360;2023-01-30T06:38:10;94542.00;;;1.25;81.60
6389;BME280;3227;42.654;23.360;2023-01-30T06:40:38;94321.38;;;-0.05;82.40
6389;BME280;3227;42.654;23.360;2023-01-30T06:43:06;94546.25;;;1.26;82.37
6389;BME280;3227;42.654;23.360;2023-01-30T06:45:34;94546.94;;;0.98;81.89
6389;BME280;3227;42.654;23.360;2023-01-30T06:48:01;94550.16;;;0.94;83.67
6389;BME280;3227;42.654;23.360;2023-01-30T06:50:28;94552.53;;;0.90;82.70
6389;BME280;3227;42.654;23.360;2023-01-30T06:52:56;94525.13;;;0.76;83.96
6389;BME280;3227;42.654;23.360;2023-01-30T06:55:25;94552.88;;;1.00;82.99
6389;BME280;3227;42.654;23.360;2023-01-30T06:58:00;94500.59;;;0.72;82.95
6389;BME280;3227;42.654;23.360;2023-01-30T07:00:27;94558.19;;;1.08;82.74
6389;BME280;3227;42.654;23.360;2023-01-30T07:02:56;94551.75;;;1.14;82.49
6389;BME280;3227;42.654;23.360;2023-01-30T07:05:23;94476.28;;;0.74;82.35
6389;BME280;3227;42.654;23.360;2023-01-30T07:07:49;94555.97;;;1.39;82.77
6389;BME280;3227;42.654;23.360;2023-01-30T07:10:16;94561.09;;;1.42;80.99
6389;BME280;3227;42.654;23.360;2023-01-30T07:12:44;94535.13;;;1.21;80.59
6389;BME280;3227;42.654;23.360;2023-01-30T07:15:11;94563.97;;;1.04;81.16
6389;BME280;3227;42.654;23.360;2023-01-30T07:17:39;94572.31;;;1.03;82.71
6389;BME280;3227;42.654;23.360;2023-01-30T07:20:09;94563.09;;;1.03;83.39
6389;BME280;3227;42.654;23.360;2023-01-30T07:22:36;94572.13;;;1.21;82.99
6389;BME280;3227;42.654;23.360;2023-01-30T07:25:04;94571.22;;;1.19;82.73
6389;BME280;3227;42.654;23.360;2023-01-30T07:27:31;94565.69;;;1.29;83.33
6389;BME280;3227;42.654;23.360;2023-01-30T07:29:58;94553.59;;;1.44;82.45
6389;BME280;3227;42.654;23.360;2023-01-30T07:32:25;94560.31;;;1.43;82.16
6389;BME280;3227;42.654;23.360;2023-01-30T07:34:51;94575.38;;;1.66;80.77
6389;BME280;3227;42.654;23.360;2023-01-30T07:37:20;94578.69;;;1.88;80.43
6389;BME280;3227;42.654;23.360;2023-01-30T07:39:46;94572.91;;;1.92;80.45
6389;BME280;3227;42.654;23.360;2023-01-30T07:42:13;94592.75;;;2.07;79.25
6389;BME280;3227;42.654;23.360;2023-01-30T07:44:40;94576.78;;;2.08;79.19
6389;BME280;3227;42.654;23.360;2023-01-30T07:47:07;94585.66;;;2.22;79.21
6389;BME280;3227;42.654;23.360;2023-01-30T07:49:33;94584.13;;;2.26;78.96
6389;BME280;3227;42.654;23.360;2023-01-30T07:52:00;94584.59;;;2.41;78.33
6389;BME280;3227;42.654;23.360;2023-01-30T07:54:28;94581.59;;;2.53;78.13
6389;BME280;3227;42.654;23.360;2023-01-30T07:56:55;94578.97;;;2.50;76.74
6389;BME280;3227;42.654;23.360;2023-01-30T07:59:22;94554.19;;;2.40;76.61
6389;BME280;3227;42.654;23.360;2023-01-30T08:01:49;94567.94;;;2.48;76.09
6389;BME280;3227;42.654;23.360;2023-01-30T08:04:15;94562.22;;;2.53;76.88
6389;BME280;3227;42.654;23.360;2023-01-30T08:06:42;94552.75;;;2.48;75.31
6389;BME280;3227;42.654;23.360;2023-01-30T08:09:09;94557.16;;;2.53;75.40
6389;BME280;3227;42.654;23.360;2023-01-30T08:11:37;94546.09;;;2.50;75.07
6389;BME280;3227;42.654;23.360;2023-01-30T08:14:04;94552.75;;;2.48;75.54
6389;BME280;3227;42.654;23.360;2023-01-30T08:16:31;94554.59;;;2.52;75.65
6389;BME280;3227;42.654;23.360;2023-01-30T08:18:58;94523.03;;;2.41;75.41
6389;BME280;3227;42.654;23.360;2023-01-30T08:21:25;94551.69;;;2.68;74.16
6389;BME280;3227;42.654;23.360;2023-01-30T08:23:52;94548.19;;;2.63;74.49
6389;BME280;3227;42.654;23.360;2023-01-30T08:26:20;94524.88;;;2.45;74.97
6389;BME280;3227;42.654;23.360;2023-01-30T08:28:48;94504.31;;;2.34;73.91
6389;BME280;3227;42.654;23.360;2023-01-30T08:31:16;94516.69;;;2.53;74.32
6389;BME280;3227;42.654;23.360;2023-01-30T08:33:43;94536.78;;;2.77;73.59
6389;BME280;3227;42.654;23.360;2023-01-30T08:36:09;94534.53;;;2.86;73.15
6389;BME280;3227;42.654;23.360;2023-01-30T08:38:36;94532.88;;;2.87;73.12
6389;BME280;3227;42.654;23.360;2023-01-30T08:41:04;94527.31;;;2.70;72.29
6389;BME280;3227;42.654;23.360;2023-01-30T08:43:32;94527.38;;;2.72;73.36
6389;BME280;3227;42.654;23.360;2023-01-30T08:46:00;94526.03;;;2.84;73.53
6389;BME280;3227;42.654;23.360;2023-01-30T08:51:48;94520.69;;;3.03;71.45
6389;BME280;3227;42.654;23.360;2023-01-30T08:54:15;94519.88;;;3.06;70.85
6389;BME280;3227;42.654;23.360;2023-01-30T08:56:41;94484.31;;;2.70;70.07
6389;BME280;3227;42.654;23.360;2023-01-30T08:59:08;94522.22;;;2.98;71.13
6389;BME280;3227;42.654;23.360;2023-01-30T09:01:36;94512.03;;;2.95;70.58
6389;BME280;3227;42.654;23.360;2023-01-30T09:04:03;94514.94;;;3.09;70.38
6389;BME280;3227;42.654;23.360;2023-01-30T09:06:30;94513.09;;;3.03;69.51
6389;BME280;3227;42.654;23.360;2023-01-30T09:12:18;94505.50;;;3.03;69.00
6389;BME280;3227;42.654;23.360;2023-01-30T09:14:45;94500.44;;;3.05;68.78
6389;BME280;3227;42.654;23.360;2023-01-30T09:17:13;94487.59;;;2.97;68.47
6389;BME280;3227;42.654;23.360;2023-01-30T09:19:40;94503.34;;;3.17;69.18
6389;BME280;3227;42.654;23.360;2023-01-30T09:22:06;94492.50;;;3.23;66.94
6389;BME280;3227;42.654;23.360;2023-01-30T09:24:33;94501.50;;;3.12;66.71
6389;BME280;3227;42.654;23.360;2023-01-30T09:30:22;94496.75;;;2.92;66.72
6389;BME280;3227;42.654;23.360;2023-01-30T09:36:11;94436.09;;;2.36;69.30
6389;BME280;3227;42.654;23.360;2023-01-30T09:38:38;94489.75;;;2.54;70.65
6389;BME280;3227;42.654;23.360;2023-01-30T09:41:25;94505.34;;;2.41;71.44
6389;BME280;3227;42.654;23.360;2023-01-30T09:44:11;94496.97;;;2.15;71.68
6389;BME280;3227;42.654;23.360;2023-01-30T09:46:45;94489.44;;;2.16;73.27
6389;BME280;3227;42.654;23.360;2023-01-30T09:49:23;94487.13;;;2.24;73.12
6389;BME280;3227;42.654;23.360;2023-01-30T09:51:59;94480.38;;;2.23;73.29
6389;BME280;3227;42.654;23.360;2023-01-30T09:54:30;94425.78;;;1.73;73.70
6389;BME280;3227;42.654;23.360;2023-01-30T09:57:09;94471.03;;;1.67;74.29
6389;BME280;3227;42.654;23.360;2023-01-30T09:59:44;94474.72;;;1.51;77.28
6389;BME280;3227;42.654;23.360;2023-01-30T10:02:26;94474.06;;;1.57;77.08
6389;BME280;3227;42.654;23.360;2023-01-30T10:04:54;94399.06;;;1.27;76.20
6389;BME280;3227;42.654;23.360;2023-01-30T10:07:30;94460.47;;;1.78;76.86
6389;BME280;3227;42.654;23.360;2023-01-30T10:10:02;94450.97;;;1.98;76.33
6389;BME280;3227;42.654;23.360;2023-01-30T10:12:41;94453.59;;;2.01;75.73
6389;BME280;3227;42.654;23.360;2023-01-30T10:15:33;94441.25;;;1.83;74.94
6389;BME280;3227;42.654;23.360;2023-01-30T10:18:27;94434.34;;;1.78;75.61
6389;BME280;3227;42.654;23.360;2023-01-30T10:21:03;94432.28;;;1.66;76.46
6389;BME280;3227;42.654;23.360;2023-01-30T10:23:49;94427.00;;;1.59;76.92
6389;BME280;3227;42.654;23.360;2023-01-30T10:26:22;94431.19;;;1.85;76.71
6389;BME280;3227;42.654;23.360;2023-01-30T10:28:56;94420.28;;;1.86;75.94
6389;BME280;3227;42.654;23.360;2023-01-30T10:31:27;94410.00;;;1.80;76.02
6389;BME280;3227;42.654;23.360;2023-01-30T10:33:58;94401.28;;;1.70;75.74
6389;BME280;3227;42.654;23.360;2023-01-30T10:36:32;94408.28;;;1.52;75.31
6389;BME280;3227;42.654;23.360;2023-01-30T10:39:03;94398.34;;;1.58;76.66
6389;BME280;3227;42.654;23.360;2023-01-30T10:41:37;94346.75;;;1.50;76.92
6389;BME280;3227;42.654;23.360;2023-01-30T10:44:09;94382.56;;;1.92;76.18
6389;BME280;3227;42.654;23.360;2023-01-30T10:46:57;94377.47;;;1.90;73.19
6389;BME280;3227;42.654;23.360;2023-01-30T10:49:35;94382.75;;;1.98;73.80
6389;BME280;3227;42.654;23.360;2023-01-30T10:52:17;94378.66;;;1.75;73.89
6389;BME280;3227;42.654;23.360;2023-01-30T10:54:56;94363.81;;;2.12;74.54
6389;BME280;3227;42.654;23.360;2023-01-30T10:57:44;94357.56;;;2.31;73.21
6389;BME280;3227;42.654;23.360;2023-01-30T11:00:19;94362.56;;;2.28;72.00
6389;BME280;3227;42.654;23.360;2023-01-30T11:03:02;94350.59;;;2.22;72.22
6389;BME280;3227;42.654;23.360;2023-01-30T11:05:37;94335.53;;;2.25;70.68
6389;BME280;3227;42.654;23.360;2023-01-30T11:08:11;94339.28;;;2.10;72.08
6389;BME280;3227;42.654;23.360;2023-01-30T11:10:45;94320.09;;;2.16;72.64
6389;BME280;3227;42.654;23.360;2023-01-30T11:13:15;94333.50;;;2.44;70.91
6389;BME280;3227;42.654;23.360;2023-01-30T11:15:44;94319.03;;;2.08;69.75
6389;BME280;3227;42.654;23.360;2023-01-30T11:18:12;94316.00;;;2.20;71.48
6389;BME280;3227;42.654;23.360;2023-01-30T11:20:42;94320.09;;;2.16;71.62
6389;BME280;3227;42.654;23.360;2023-01-30T11:23:23;94304.25;;;2.22;70.26
6389;BME280;3227;42.654;23.360;2023-01-30T11:25:53;94265.31;;;2.15;71.62
6389;BME280;3227;42.654;23.360;2023-01-30T11:28:21;94298.41;;;2.24;69.47
6389;BME280;3227;42.654;23.360;2023-01-30T11:30:52;94286.38;;;2.16;70.34
6389;BME280;3227;42.654;23.360;2023-01-30T11:33:22;94282.06;;;2.12;70.20
6389;BME280;3227;42.654;23.360;2023-01-30T11:35:55;94287.47;;;1.94;71.01
6389;BME280;3227;42.654;23.360;2023-01-30T11:38:23;94242.69;;;1.90;71.87
6389;BME280;3227;42.654;23.360;2023-01-30T11:41:17;94277.41;;;1.96;71.07
6389;BME280;3227;42.654;23.360;2023-01-30T11:43:45;94261.94;;;1.57;72.52
6389;BME280;3227;42.654;23.360;2023-01-30T11:46:16;94257.16;;;1.66;72.71
6389;BME280;3227;42.654;23.360;2023-01-30T11:48:48;94263.81;;;1.92;71.95
6389;BME280;3227;42.654;23.360;2023-01-30T11:51:19;93919.44;;;-0.02;72.22
6389;BME280;3227;42.654;23.360;2023-01-30T11:53:48;94245.06;;;2.14;71.14
6389;BME280;3227;42.654;23.360;2023-01-30T11:56:21;94235.47;;;2.34;71.00
6389;BME280;3227;42.654;23.360;2023-01-30T11:58:53;94232.75;;;2.59;71.62
6389;BME280;3227;42.654;23.360;2023-01-30T12:01:25;94228.19;;;2.80;69.56
6389;BME280;3227;42.654;23.360;2023-01-30T12:03:54;94230.84;;;2.85;69.36
6389;BME280;3227;42.654;23.360;2023-01-30T12:06:23;94212.91;;;2.76;69.14
6389;BME280;3227;42.654;23.360;2023-01-30T12:08:52;94210.66;;;2.52;68.49
6389;BME280;3227;42.654;23.360;2023-01-30T12:11:30;94196.97;;;2.11;70.15
6389;BME280;3227;42.654;23.360;2023-01-30T12:14:18;94200.06;;;2.34;71.55
6389;BME280;3227;42.654;23.360;2023-01-30T12:16:58;94178.22;;;2.03;70.30
6389;BME280;3227;42.654;23.360;2023-01-30T12:19:36;94196.91;;;1.78;71.57
6389;BME280;3227;42.654;23.360;2023-01-30T12:22:15;94110.56;;;1.00;73.24
6389;BME280;3227;42.654;23.360;2023-01-30T12:24:48;94194.16;;;1.40;75.04
6389;BME280;3227;42.654;23.360;2023-01-30T12:27:27;94189.56;;;1.56;77.28
6389;BME280;3227;42.654;23.360;2023-01-30T12:30:02;94184.03;;;1.69;75.99
6389;BME280;3227;42.654;23.360;2023-01-30T12:32:32;94178.19;;;1.70;73.32
6389;BME280;3227;42.654;23.360;2023-01-30T12:35:00;94171.44;;;1.40;74.02
6389;BME280;3227;42.654;23.360;2023-01-30T12:37:39;94144.69;;;1.17;74.62
6389;BME280;3227;42.654;23.360;2023-01-30T12:40:19;94147.66;;;1.32;74.84
6389;BME280;3227;42.654;23.360;2023-01-30T12:43:06;94093.75;;;0.99;73.80
6389;BME280;3227;42.654;23.360;2023-01-30T12:45:41;94170.25;;;1.58;72.83
6389;BME280;3227;42.654;23.360;2023-01-30T12:48:30;94153.31;;;1.85;73.66
6389;BME280;3227;42.654;23.360;2023-01-30T12:51:10;94156.25;;;2.00;73.04
6389;BME280;3227;42.654;23.360;2023-01-30T12:53:50;94141.22;;;2.39;70.68
6389;BME280;3227;42.654;23.360;2023-01-30T12:56:51;94143.81;;;2.42;69.25
6389;BME280;3227;42.654;23.360;2023-01-30T12:59:25;94137.41;;;2.56;68.69
6389;BME280;3227;42.654;23.360;2023-01-30T13:02:14;94056.56;;;1.87;69.11
6389;BME280;3227;42.654;23.360;2023-01-30T13:04:55;94137.09;;;2.43;70.60
6389;BME280;3227;42.654;23.360;2023-01-30T13:07:31;94138.00;;;2.45;69.16
6389;BME280;3227;42.654;23.360;2023-01-30T13:10:06;94134.34;;;2.34;69.45
6389;BME280;3227;42.654;23.360;2023-01-30T13:12:39;94133.56;;;2.36;69.69
6389;BME280;3227;42.654;23.360;2023-01-30T13:15:17;94137.56;;;2.62;69.00
6389;BME280;3227;42.654;23.360;2023-01-30T13:18:06;94138.06;;;2.84;68.99
6389;BME280;3227;42.654;23.360;2023-01-30T13:20:42;94138.50;;;3.05;69.09
6389;BME280;3227;42.654;23.360;2023-01-30T13:23:16;94133.06;;;3.26;68.12
6389;BME280;3227;42.654;23.360;2023-01-30T13:25:49;94128.38;;;3.03;67.27
6389;BME280;3227;42.654;23.360;2023-01-30T13:28:23;94123.44;;;2.71;66.76
6389;BME280;3227;42.654;23.360;2023-01-30T13:30:52;94127.06;;;2.46;68.33
6389;BME280;3227;42.654;23.360;2023-01-30T13:33:23;94119.06;;;2.63;68.89
6389;BME280;3227;42.654;23.360;2023-01-30T13:35:54;94108.25;;;2.71;67.43
6389;BME280;3227;42.654;23.360;2023-01-30T13:38:25;94114.63;;;2.92;69.33
6389;BME280;3227;42.654;23.360;2023-01-30T13:40:56;94110.78;;;2.71;66.41
6389;BME280;3227;42.654;23.360;2023-01-30T13:43:28;94108.22;;;2.69;68.12
6389;BME280;3227;42.654;23.360;2023-01-30T13:45:59;94068.56;;;2.68;68.27
6389;BME280;3227;42.654;23.360;2023-01-30T13:48:38;94097.13;;;3.01;66.23
6389;BME280;3227;42.654;23.360;2023-01-30T13:51:23;94097.19;;;3.06;66.73
6389;BME280;3227;42.654;23.360;2023-01-30T13:53:58;94103.19;;;3.10;68.20
6389;BME280;3227;42.654;23.360;2023-01-30T13:56:32;94097.34;;;3.12;67.14
6389;BME280;3227;42.654;23.360;2023-01-30T13:59:04;94072.59;;;2.99;68.01